sensor_id;sensor_type;location;lat;lon;timestamp;pressure;altitude;pressure_sealevel;temperature;humidity
70546;BME280;58098;51.680;5.134;2022-12-13T00:00:17;101390.53;;;-6.58;100.00
70546;BME280;58098;51.680;5.134;2022-12-13T00:02:44;101370.25;;;-6.70;100.00
70546;BME280;58098;51.680;5.134;2022-12-13T00:05:10;101366.03;;;-6.74;100.00
70546;BME280;58098;51.680;5.134;2022-12-13T00:07:36;101359.25;;;-6.72;100.00
70546;BME280;58098;51.680;5.134;2022-12-13T00:10:03;101376.16;;;-6.60;100.00
70546;BME280;58098;51.680;5.134;2022-12-13T00:12:28;101350.78;;;-6.79;100.00
70546;BME280;58098;51.680;5.134;2022-12-13T00:14:54;101377.84;;;-6.64;100.00
70546;BME280;58098;51.680;5.134;2022-12-13T00:17:19;101366.88;;;-6.75;100.00
70546;BME280;58098;51.680;5.134;2022-12-13T00:19:48;101360.09;;;-6.76;100.00
70546;BME280;58098;51.680;5.134;2022-12-13T00:22:14;101342.34;;;-6.88;100.00
70546;BME280;58098;51.680;5.134;2022-12-13T00:24:41;101359.25;;;-6.84;100.00
70546;BME280;58098;51.680;5.134;2022-12-13T00:27:06;101363.47;;;-6.80;100.00
70546;BME280;58098;51.680;5.134;2022-12-13T00:29:31;101374.47;;;-6.78;100.00
70546;BME280;58098;51.680;5.134;2022-12-13T00:31:57;101356.72;;;-6.87;100.00
70546;BME280;58098;51.680;5.134;2022-12-13T00:34:23;101360.09;;;-6.84;100.00
70546;BME280;58098;51.680;5.134;2022-12-13T00:36:48;101348.25;;;-6.92;100.00
70546;BME280;58098;51.680;5.134;2022-12-13T00:39:14;101349.94;;;-6.88;100.00
70546;BME280;58098;51.680;5.134;2022-12-13T00:41:41;101359.25;;;-6.84;100.00
70546;BME280;58098;51.680;5.134;2022-12-13T00:44:09;101351.66;;;-6.92;100.00
70546;BME280;58098;51.680;5.134;2022-12-13T00:46:36;101360.09;;;-6.82;100.00
70546;BME280;58098;51.680;5.134;2022-12-13T00:49:01;101354.19;;;-6.90;100.00
70546;BME280;58098;51.680;5.134;2022-12-13T00:51:30;101359.25;;;-6.92;100.00
70546;BME280;58098;51.680;5.134;2022-12-13T00:53:56;101355.03;;;-6.91;100.00
70546;BME280;58098;51.680;5.134;2022-12-13T00:56:23;101333.91;;;-6.96;100.00
70546;BME280;58098;51.680;5.134;2022-12-13T00:58:50;101354.16;;;-6.81;100.00
70546;BME280;58098;51.680;5.134;2022-12-13T01:01:17;101349.94;;;-6.85;100.00
70546;BME280;58098;51.680;5.134;2022-12-13T01:03:43;101341.50;;;-6.90;100.00
70546;BME280;58098;51.680;5.134;2022-12-13T01:06:14;101349.13;;;-6.92;100.00
70546;BME280;58098;51.680;5.134;2022-12-13T01:08:41;101353.34;;;-6.92;100.00
70546;BME280;58098;51.680;5.134;2022-12-13T01:11:07;101313.63;;;-7.16;100.00
70546;BME280;58098;51.680;5.134;2022-12-13T01:13:33;101355.03;;;-6.97;100.00
70546;BME280;58098;51.680;5.134;2022-12-13T01:16:01;101348.25;;;-6.98;100.00
70546;BME280;58098;51.680;5.134;2022-12-13T01:18:27;101336.44;;;-7.02;100.00
70546;BME280;58098;51.680;5.134;2022-12-13T01:21:03;101329.66;;;-7.12;100.00
70546;BME280;58098;51.680;5.134;2022-12-13T01:23:29;101345.72;;;-7.09;100.00
70546;BME280;58098;51.680;5.134;2022-12-13T01:25:55;101334.75;;;-7.09;100.00
70546;BME280;58098;51.680;5.134;2022-12-13T01:28:20;101321.19;;;-7.17;100.00
70546;BME280;58098;51.680;5.134;2022-12-13T01:30:54;101341.50;;;-7.08;100.00
70546;BME280;58098;51.680;5.134;2022-12-13T01:33:20;101334.72;;;-7.17;100.00
70546;BME280;58098;51.680;5.134;2022-12-13T01:35:45;101338.97;;;-7.10;100.00
70546;BME280;58098;51.680;5.134;2022-12-13T01:38:10;101333.03;;;-7.16;100.00
70546;BME280;58098;51.680;5.134;2022-12-13T01:40:42;101330.53;;;-7.09;100.00
70546;BME280;58098;51.680;5.134;2022-12-13T01:43:11;101333.88;;;-7.19;100.00
70546;BME280;58098;51.680;5.134;2022-12-13T01:45:37;101336.41;;;-7.17;100.00
70546;BME280;58098;51.680;5.134;2022-12-13T01:48:06;101344.88;;;-7.14;100.00
70546;BME280;58098;51.680;5.134;2022-12-13T01:50:38;101351.63;;;-7.11;100.00
70546;BME280;58098;51.680;5.134;2022-12-13T01:53:07;101355.00;;;-7.09;100.00
70546;BME280;58098;51.680;5.134;2022-12-13T01:55:36;101342.34;;;-7.18;100.00
70546;BME280;58098;51.680;5.134;2022-12-13T01:58:04;101345.72;;;-7.16;100.00
70546;BME280;58098;51.680;5.134;2022-12-13T02:00:31;101330.50;;;-7.19;100.00
70546;BME280;58098;51.680;5.134;2022-12-13T02:02:59;101349.94;;;-7.09;100.00
70546;BME280;58098;51.680;5.134;2022-12-13T02:05:45;101360.94;;;-7.09;100.00
70546;BME280;58098;51.680;5.134;2022-12-13T02:08:14;101344.00;;;-7.17;100.00
70546;BME280;58098;51.680;5.134;2022-12-13T02:10:41;101337.25;;;-7.24;100.00
70546;BME280;58098;51.680;5.134;2022-12-13T02:13:06;101339.78;;;-7.24;100.00
70546;BME280;58098;51.680;5.134;2022-12-13T02:15:41;101349.91;;;-7.24;100.00
70546;BME280;58098;51.680;5.134;2022-12-13T02:35:02;101320.34;;;-7.50;100.00
70546;BME280;58098;51.680;5.134;2022-12-13T02:40:10;101320.34;;;-7.50;100.00
70546;BME280;58098;51.680;5.134;2022-12-13T02:42:43;101326.25;;;-7.48;100.00
70546;BME280;58098;51.680;5.134;2022-12-13T02:45:16;101328.75;;;-7.45;100.00
70546;BME280;58098;51.680;5.134;2022-12-13T02:47:43;101305.97;;;-7.54;100.00
70546;BME280;58098;51.680;5.134;2022-12-13T02:50:11;101311.88;;;-7.49;100.00
70546;BME280;58098;51.680;5.134;2022-12-13T02:52:39;101299.19;;;-7.52;100.00
70546;BME280;58098;51.680;5.134;2022-12-13T02:55:10;101317.81;;;-7.41;100.00
70546;BME280;58098;51.680;5.134;2022-12-13T02:57:39;101314.44;;;-7.41;100.00
70546;BME280;58098;51.680;5.134;2022-12-13T03:00:09;101310.19;;;-7.44;100.00
70546;BME280;58098;51.680;5.134;2022-12-13T03:05:27;101316.16;;;-7.32;100.00
70546;BME280;58098;51.680;5.134;2022-12-13T03:08:21;101315.28;;;-7.34;100.00
70546;BME280;58098;51.680;5.134;2022-12-13T03:11:24;101311.91;;;-7.32;100.00
70546;BME280;58098;51.680;5.134;2022-12-13T03:14:04;101300.91;;;-7.42;100.00
70546;BME280;58098;51.680;5.134;2022-12-13T03:16:36;101314.44;;;-7.33;100.00
70546;BME280;58098;51.680;5.134;2022-12-13T03:19:05;101301.78;;;-7.38;100.00
70546;BME280;58098;51.680;5.134;2022-12-13T03:21:48;101326.28;;;-7.26;100.00
70546;BME280;58098;51.680;5.134;2022-12-13T03:24:18;101316.16;;;-7.28;100.00
70546;BME280;58098;51.680;5.134;2022-12-13T03:26:44;101315.28;;;-7.22;100.00
70546;BME280;58098;51.680;5.134;2022-12-13T03:29:09;101321.22;;;-7.20;100.00
70546;BME280;58098;51.680;5.134;2022-12-13T03:31:35;101311.06;;;-7.26;100.00
70546;BME280;58098;51.680;5.134;2022-12-13T03:34:00;101309.38;;;-7.30;100.00
70546;BME280;58098;51.680;5.134;2022-12-13T03:36:26;101302.63;;;-7.31;100.00
70546;BME280;58098;51.680;5.134;2022-12-13T03:38:52;101296.69;;;-7.32;100.00
70546;BME280;58098;51.680;5.134;2022-12-13T03:41:21;101316.97;;;-7.24;100.00
70546;BME280;58098;51.680;5.134;2022-12-13T03:43:48;101305.13;;;-7.30;100.00
70546;BME280;58098;51.680;5.134;2022-12-13T03:46:14;101306.00;;;-7.23;100.00
70546;BME280;58098;51.680;5.134;2022-12-13T03:48:39;101304.31;;;-7.29;100.00
70546;BME280;58098;51.680;5.134;2022-12-13T03:51:05;101309.38;;;-7.29;100.00
70546;BME280;58098;51.680;5.134;2022-12-13T03:53:31;101295.00;;;-7.34;100.00
70546;BME280;58098;51.680;5.134;2022-12-13T03:55:56;101295.00;;;-7.30;100.00
70546;BME280;58098;51.680;5.134;2022-12-13T03:58:22;101285.72;;;-7.31;100.00
70546;BME280;58098;51.680;5.134;2022-12-13T04:00:48;101288.25;;;-7.34;100.00
70546;BME280;58098;51.680;5.134;2022-12-13T04:03:13;101314.44;;;-7.21;100.00
70546;BME280;58098;51.680;5.134;2022-12-13T04:05:38;101321.19;;;-7.22;100.00
70546;BME280;58098;51.680;5.134;2022-12-13T04:08:04;101287.41;;;-7.33;100.00
70546;BME280;58098;51.680;5.134;2022-12-13T04:10:30;101285.72;;;-7.40;100.00
70546;BME280;58098;51.680;5.134;2022-12-13T04:12:55;101306.00;;;-7.31;100.00
70546;BME280;58098;51.680;5.134;2022-12-13T04:15:39;101307.69;;;-7.31;100.00
70546;BME280;58098;51.680;5.134;2022-12-13T04:18:05;101310.22;;;-7.27;100.00
70546;BME280;58098;51.680;5.134;2022-12-13T04:20:30;101311.06;;;-7.31;100.00
70546;BME280;58098;51.680;5.134;2022-12-13T04:22:56;101304.31;;;-7.30;100.00
70546;BME280;58098;51.680;5.134;2022-12-13T04:25:21;101303.47;;;-7.31;100.00
70546;BME280;58098;51.680;5.134;2022-12-13T04:27:47;101287.41;;;-7.44;100.00
70546;BME280;58098;51.680;5.134;2022-12-13T04:30:12;101265.44;;;-7.60;100.00
70546;BME280;58098;51.680;5.134;2022-12-13T04:32:37;101302.59;;;-7.34;100.00
70546;BME280;58098;51.680;5.134;2022-12-13T04:35:03;101276.44;;;-7.50;100.00
70546;BME280;58098;51.680;5.134;2022-12-13T04:37:29;101291.63;;;-7.41;100.00
70546;BME280;58098;51.680;5.134;2022-12-13T04:39:55;101287.41;;;-7.44;100.00
70546;BME280;58098;51.680;5.134;2022-12-13T04:42:20;101284.88;;;-7.44;100.00
70546;BME280;58098;51.680;5.134;2022-12-13T04:44:46;101273.91;;;-7.47;100.00
70546;BME280;58098;51.680;5.134;2022-12-13T04:47:13;101293.31;;;-7.42;100.00
70546;BME280;58098;51.680;5.134;2022-12-13T04:49:39;101287.41;;;-7.41;100.00
70546;BME280;58098;51.680;5.134;2022-12-13T04:52:04;101296.69;;;-7.44;100.00
70546;BME280;58098;51.680;5.134;2022-12-13T04:54:30;101287.41;;;-7.53;100.00
70546;BME280;58098;51.680;5.134;2022-12-13T04:56:57;101294.16;;;-7.46;100.00
70546;BME280;58098;51.680;5.134;2022-12-13T04:59:22;101290.75;;;-7.49;100.00
70546;BME280;58098;51.680;5.134;2022-12-13T05:01:48;101281.47;;;-7.56;100.00
70546;BME280;58098;51.680;5.134;2022-12-13T05:04:13;101292.47;;;-7.53;100.00
70546;BME280;58098;51.680;5.134;2022-12-13T05:06:38;101283.16;;;-7.63;100.00
70546;BME280;58098;51.680;5.134;2022-12-13T05:09:04;101284.84;;;-7.57;100.00
70546;BME280;58098;51.680;5.134;2022-12-13T05:11:29;101290.75;;;-7.60;100.00
70546;BME280;58098;51.680;5.134;2022-12-13T05:13:54;101281.47;;;-7.61;100.00
70546;BME280;58098;51.680;5.134;2022-12-13T05:16:20;101276.38;;;-7.59;100.00
70546;BME280;58098;51.680;5.134;2022-12-13T05:18:45;101276.38;;;-7.59;100.00
70546;BME280;58098;51.680;5.134;2022-12-13T05:21:11;101273.03;;;-7.60;100.00
70546;BME280;58098;51.680;5.134;2022-12-13T05:23:37;101267.13;;;-7.62;100.00
70546;BME280;58098;51.680;5.134;2022-12-13T05:26:02;101270.50;;;-7.60;100.00
70546;BME280;58098;51.680;5.134;2022-12-13T05:28:29;101253.59;;;-7.73;100.00
70546;BME280;58098;51.680;5.134;2022-12-13T05:31:04;101256.16;;;-7.62;100.00
70546;BME280;58098;51.680;5.134;2022-12-13T05:33:30;101242.59;;;-7.73;100.00
70546;BME280;58098;51.680;5.134;2022-12-13T05:35:56;101260.38;;;-7.63;100.00
70546;BME280;58098;51.680;5.134;2022-12-13T05:38:21;101251.91;;;-7.68;100.00
70546;BME280;58098;51.680;5.134;2022-12-13T05:40:47;101244.31;;;-7.71;100.00
70546;BME280;58098;51.680;5.134;2022-12-13T05:43:12;101233.31;;;-7.76;100.00
70546;BME280;58098;51.680;5.134;2022-12-13T05:45:38;101241.78;;;-7.74;100.00
70546;BME280;58098;51.680;5.134;2022-12-13T05:48:03;101236.69;;;-7.75;100.00
70546;BME280;58098;51.680;5.134;2022-12-13T05:50:29;101259.50;;;-7.66;100.00
70546;BME280;58098;51.680;5.134;2022-12-13T05:52:54;101244.31;;;-7.71;100.00
70546;BME280;58098;51.680;5.134;2022-12-13T05:55:20;101247.69;;;-7.72;100.00
70546;BME280;58098;51.680;5.134;2022-12-13T05:57:45;101256.13;;;-7.68;100.00
70546;BME280;58098;51.680;5.134;2022-12-13T06:00:11;101269.66;;;-7.60;100.00
70546;BME280;58098;51.680;5.134;2022-12-13T06:02:37;101268.78;;;-7.59;100.00
70546;BME280;58098;51.680;5.134;2022-12-13T06:05:03;101277.25;;;-7.57;100.00
70546;BME280;58098;51.680;5.134;2022-12-13T06:07:29;101258.69;;;-7.67;100.00
70546;BME280;58098;51.680;5.134;2022-12-13T06:09:55;101265.44;;;-7.60;100.00
70546;BME280;58098;51.680;5.134;2022-12-13T06:12:20;101267.97;;;-7.58;100.00
70546;BME280;58098;51.680;5.134;2022-12-13T06:14:45;101270.50;;;-7.60;100.00
70546;BME280;58098;51.680;5.134;2022-12-13T06:17:10;101268.78;;;-7.64;100.00
70546;BME280;58098;51.680;5.134;2022-12-13T06:19:36;101270.47;;;-7.61;100.00
70546;BME280;58098;51.680;5.134;2022-12-13T06:22:01;101266.25;;;-7.65;100.00
70546;BME280;58098;51.680;5.134;2022-12-13T06:24:26;101262.06;;;-7.65;100.00
70546;BME280;58098;51.680;5.134;2022-12-13T06:26:52;101263.75;;;-7.67;100.00
70546;BME280;58098;51.680;5.134;2022-12-13T06:29:19;101277.25;;;-7.65;100.00
70546;BME280;58098;51.680;5.134;2022-12-13T06:31:45;101277.25;;;-7.63;100.00
70546;BME280;58098;51.680;5.134;2022-12-13T06:34:11;101273.03;;;-7.63;100.00
70546;BME280;58098;51.680;5.134;2022-12-13T06:36:36;101259.50;;;-7.72;100.00
70546;BME280;58098;51.680;5.134;2022-12-13T06:39:05;101272.16;;;-7.63;100.00
70546;BME280;58098;51.680;5.134;2022-12-13T06:41:31;101253.56;;;-7.76;100.00
70546;BME280;58098;51.680;5.134;2022-12-13T06:43:57;101245.13;;;-7.81;100.00
70546;BME280;58098;51.680;5.134;2022-12-13T06:46:22;101262.03;;;-7.74;100.00
70546;BME280;58098;51.680;5.134;2022-12-13T06:48:48;101251.03;;;-7.80;100.00
70546;BME280;58098;51.680;5.134;2022-12-13T06:51:14;101258.63;;;-7.76;100.00
70546;BME280;58098;51.680;5.134;2022-12-13T06:53:40;101244.25;;;-7.86;100.00
70546;BME280;58098;51.680;5.134;2022-12-13T06:56:11;101244.25;;;-7.90;100.00
70546;BME280;58098;51.680;5.134;2022-12-13T06:58:37;101254.44;;;-7.81;100.00
70546;BME280;58098;51.680;5.134;2022-12-13T07:01:07;101257.78;;;-7.81;100.00
70546;BME280;58098;51.680;5.134;2022-12-13T07:03:34;101253.56;;;-7.82;100.00
70546;BME280;58098;51.680;5.134;2022-12-13T07:06:03;101253.56;;;-7.86;100.00
70546;BME280;58098;51.680;5.134;2022-12-13T07:08:29;101246.81;;;-7.87;100.00
70546;BME280;58098;51.680;5.134;2022-12-13T07:10:55;101257.78;;;-7.85;100.00
70546;BME280;58098;51.680;5.134;2022-12-13T07:13:21;101257.78;;;-7.90;100.00
70546;BME280;58098;51.680;5.134;2022-12-13T07:15:47;101264.53;;;-7.92;100.00
70546;BME280;58098;51.680;5.134;2022-12-13T07:18:12;101257.78;;;-7.90;100.00
70546;BME280;58098;51.680;5.134;2022-12-13T07:20:39;101246.78;;;-8.01;100.00
70546;BME280;58098;51.680;5.134;2022-12-13T07:23:05;101243.41;;;-8.01;100.00
70546;BME280;58098;51.680;5.134;2022-12-13T07:25:30;101253.53;;;-7.95;100.00
70546;BME280;58098;51.680;5.134;2022-12-13T07:28:01;101255.25;;;-7.96;100.00
70546;BME280;58098;51.680;5.134;2022-12-13T07:30:27;101267.91;;;-7.90;100.00
70546;BME280;58098;51.680;5.134;2022-12-13T07:32:52;101259.47;;;-7.93;100.00
70546;BME280;58098;51.680;5.134;2022-12-13T07:35:18;101264.53;;;-7.92;100.00
70546;BME280;58098;51.680;5.134;2022-12-13T07:37:43;101243.41;;;-8.03;100.00
70546;BME280;58098;51.680;5.134;2022-12-13T07:40:09;101267.06;;;-7.92;100.00
70546;BME280;58098;51.680;5.134;2022-12-13T07:42:34;101268.75;;;-7.94;100.00
70546;BME280;58098;51.680;5.134;2022-12-13T07:45:00;101260.31;;;-7.96;100.00
70546;BME280;58098;51.680;5.134;2022-12-13T07:47:31;101260.31;;;-7.96;100.00
70546;BME280;58098;51.680;5.134;2022-12-13T07:49:57;101254.41;;;-7.93;100.00
70546;BME280;58098;51.680;5.134;2022-12-13T07:52:23;101289.88;;;-7.72;100.00
70546;BME280;58098;51.680;5.134;2022-12-13T07:54:48;101290.75;;;-7.72;100.00
70546;BME280;58098;51.680;5.134;2022-12-13T07:57:14;101284.00;;;-7.67;100.00
70546;BME280;58098;51.680;5.134;2022-12-13T07:59:39;101278.94;;;-7.67;100.00
70546;BME280;58098;51.680;5.134;2022-12-13T08:02:06;101260.34;;;-7.76;100.00
70546;BME280;58098;51.680;5.134;2022-12-13T08:04:33;101257.81;;;-7.73;100.00
70546;BME280;58098;51.680;5.134;2022-12-13T08:06:59;101264.59;;;-7.65;100.00
70546;BME280;58098;51.680;5.134;2022-12-13T08:09:24;101282.31;;;-7.59;100.00
70546;BME280;58098;51.680;5.134;2022-12-13T08:11:49;101280.63;;;-7.57;100.00
70546;BME280;58098;51.680;5.134;2022-12-13T08:14:15;101281.47;;;-7.53;100.00
70546;BME280;58098;51.680;5.134;2022-12-13T08:16:40;101263.75;;;-7.58;100.00
70546;BME280;58098;51.680;5.134;2022-12-13T08:19:05;101280.63;;;-7.49;100.00
70546;BME280;58098;51.680;5.134;2022-12-13T08:21:35;101289.94;;;-7.41;100.00
70546;BME280;58098;51.680;5.134;2022-12-13T08:24:01;101289.09;;;-7.37;100.00
70546;BME280;58098;51.680;5.134;2022-12-13T08:26:26;101294.19;;;-7.30;100.00
70546;BME280;58098;51.680;5.134;2022-12-13T08:28:52;101300.94;;;-7.26;100.00
70546;BME280;58098;51.680;5.134;2022-12-13T08:31:17;101281.50;;;-7.30;100.00
70546;BME280;58098;51.680;5.134;2022-12-13T08:33:42;101277.28;;;-7.25;100.00
70546;BME280;58098;51.680;5.134;2022-12-13T08:36:13;101291.66;;;-7.06;100.00
70546;BME280;58098;51.680;5.134;2022-12-13T08:38:39;101273.91;;;-7.09;100.00
70546;BME280;58098;51.680;5.134;2022-12-13T08:41:05;101292.47;;;-6.95;100.00
70546;BME280;58098;51.680;5.134;2022-12-13T08:43:30;101295.00;;;-6.88;100.00
70546;BME280;58098;51.680;5.134;2022-12-13T08:45:56;101272.22;;;-6.97;100.00
70546;BME280;58098;51.680;5.134;2022-12-13T08:48:22;101299.22;;;-6.67;100.00
70546;BME280;58098;51.680;5.134;2022-12-13T08:50:47;101300.88;;;-6.57;100.00
70546;BME280;58098;51.680;5.134;2022-12-13T08:53:12;101307.63;;;-6.47;100.00
70546;BME280;58098;51.680;5.134;2022-12-13T08:55:38;101296.66;;;-6.47;100.00
70546;BME280;58098;51.680;5.134;2022-12-13T08:58:04;101292.38;;;-6.39;100.00
70546;BME280;58098;51.680;5.134;2022-12-13T09:00:33;101309.25;;;-6.19;100.00
70546;BME280;58098;51.680;5.134;2022-12-13T09:02:58;101306.66;;;-6.10;100.00
70546;BME280;58098;51.680;5.134;2022-12-13T09:05:24;101315.09;;;-5.97;100.00
70546;BME280;58098;51.680;5.134;2022-12-13T09:07:56;101290.56;;;-5.99;100.00
70546;BME280;58098;51.680;5.134;2022-12-13T09:10:22;101294.75;;;-5.89;100.00
70546;BME280;58098;51.680;5.134;2022-12-13T09:12:48;101319.16;;;-5.72;100.00
70546;BME280;58098;51.680;5.134;2022-12-13T09:15:13;101306.44;;;-5.67;100.00
70546;BME280;58098;51.680;5.134;2022-12-13T09:17:38;101314.00;;;-5.57;100.00
70546;BME280;58098;51.680;5.134;2022-12-13T09:20:06;101319.03;;;-5.49;100.00
70546;BME280;58098;51.680;5.134;2022-12-13T09:22:33;101310.50;;;-5.42;100.00
70546;BME280;58098;51.680;5.134;2022-12-13T09:24:58;101321.41;;;-5.23;100.00
70546;BME280;58098;51.680;5.134;2022-12-13T09:27:24;101298.53;;;-5.25;100.00
70546;BME280;58098;51.680;5.134;2022-12-13T09:29:49;101302.69;;;-5.12;100.00
70546;BME280;58098;51.680;5.134;2022-12-13T09:32:14;101301.78;;;-5.05;100.00
70546;BME280;58098;51.680;5.134;2022-12-13T09:34:40;101311.03;;;-4.95;100.00
70546;BME280;58098;51.680;5.134;2022-12-13T09:37:05;101311.75;;;-4.84;100.00
70546;BME280;58098;51.680;5.134;2022-12-13T09:39:30;101312.53;;;-4.76;100.00
70546;BME280;58098;51.680;5.134;2022-12-13T09:41:57;101310.72;;;-4.64;100.00
70546;BME280;58098;51.680;5.134;2022-12-13T09:44:28;101289.53;;;-4.67;100.00
70546;BME280;58098;51.680;5.134;2022-12-13T09:46:56;101288.63;;;-4.58;100.00
70546;BME280;58098;51.680;5.134;2022-12-13T09:49:31;101308.78;;;-4.38;100.00
70546;BME280;58098;51.680;5.134;2022-12-13T09:52:00;101312.06;;;-4.30;100.00
70546;BME280;58098;51.680;5.134;2022-12-13T09:54:27;101290.78;;;-4.23;100.00
70546;BME280;58098;51.680;5.134;2022-12-13T09:56:54;101285.63;;;-4.17;100.00
70546;BME280;58098;51.680;5.134;2022-12-13T09:59:29;101286.38;;;-4.09;100.00
70546;BME280;58098;51.680;5.134;2022-12-13T10:02:01;101282.00;;;-4.01;100.00
70546;BME280;58098;51.680;5.134;2022-12-13T10:04:28;101290.34;;;-3.87;100.00
70546;BME280;58098;51.680;5.134;2022-12-13T10:06:53;101281.81;;;-3.86;100.00
70546;BME280;58098;51.680;5.134;2022-12-13T10:09:18;101270.78;;;-3.86;100.00
70546;BME280;58098;51.680;5.134;2022-12-13T10:11:52;101279.91;;;-3.69;100.00
70546;BME280;58098;51.680;5.134;2022-12-13T10:14:27;101279.81;;;-3.63;100.00
70546;BME280;58098;51.680;5.134;2022-12-13T10:16:59;101281.41;;;-3.56;100.00
70546;BME280;58098;51.680;5.134;2022-12-13T10:19:38;101291.47;;;-3.47;100.00
70546;BME280;58098;51.680;5.134;2022-12-13T10:22:07;101276.16;;;-3.45;100.00
70546;BME280;58098;51.680;5.134;2022-12-13T10:24:57;101259.25;;;-3.52;100.00
70546;BME280;58098;51.680;5.134;2022-12-13T10:27:26;101269.31;;;-3.43;100.00
70546;BME280;58098;51.680;5.134;2022-12-13T10:29:56;101267.59;;;-3.41;100.00
70546;BME280;58098;51.680;5.134;2022-12-13T10:32:21;101257.41;;;-3.43;100.00
70546;BME280;58098;51.680;5.134;2022-12-13T10:34:47;101250.63;;;-3.44;100.00
70546;BME280;58098;51.680;5.134;2022-12-13T10:37:31;101250.56;;;-3.41;100.00
70546;BME280;58098;51.680;5.134;2022-12-13T10:39:58;101253.91;;;-3.36;100.00
70546;BME280;58098;51.680;5.134;2022-12-13T10:42:24;101218.34;;;-3.45;100.00
70546;BME280;58098;51.680;5.134;2022-12-13T10:45:15;101235.06;;;-3.28;100.00
70546;BME280;58098;51.680;5.134;2022-12-13T10:47:42;101218.88;;;-3.24;100.00
70546;BME280;58098;51.680;5.134;2022-12-13T10:50:29;101240.63;;;-3.04;100.00
70546;BME280;58098;51.680;5.134;2022-12-13T10:52:55;101223.56;;;-3.00;100.00
70546;BME280;58098;51.680;5.134;2022-12-13T10:55:33;101231.75;;;-2.85;100.00
70546;BME280;58098;51.680;5.134;2022-12-13T10:58:06;101222.31;;;-2.80;100.00
70546;BME280;58098;51.680;5.134;2022-12-13T11:00:40;101220.44;;;-2.70;100.00
70546;BME280;58098;51.680;5.134;2022-12-13T11:03:07;101201.88;;;-2.80;100.00
70546;BME280;58098;51.680;5.134;2022-12-13T11:05:35;101223.91;;;-2.74;100.00
70546;BME280;58098;51.680;5.134;2022-12-13T11:08:19;101216.25;;;-2.74;100.00
70546;BME280;58098;51.680;5.134;2022-12-13T11:10:45;101206.09;;;-2.76;100.00
70546;BME280;58098;51.680;5.134;2022-12-13T11:13:22;101194.22;;;-2.78;100.00
70546;BME280;58098;51.680;5.134;2022-12-13T11:15:53;101188.19;;;-2.74;100.00
70546;BME280;58098;51.680;5.134;2022-12-13T11:18:22;101188.03;;;-2.67;100.00
70546;BME280;58098;51.680;5.134;2022-12-13T11:20:57;101200.50;;;-2.51;100.00
70546;BME280;58098;51.680;5.134;2022-12-13T11:23:38;101196.16;;;-2.48;100.00
70546;BME280;58098;51.680;5.134;2022-12-13T11:26:10;101184.03;;;-2.37;100.00
70546;BME280;58098;51.680;5.134;2022-12-13T11:37:29;101193.25;;;-1.91;100.00
70546;BME280;58098;51.680;5.134;2022-12-13T11:40:15;101189.34;;;-1.69;100.00
70546;BME280;58098;51.680;5.134;2022-12-13T11:45:49;101173.66;;;-1.56;100.00
70546;BME280;58098;51.680;5.134;2022-12-13T11:49:37;101175.84;;;-1.41;100.00
70546;BME280;58098;51.680;5.134;2022-12-13T11:51:40;101166.53;;;-1.43;100.00
70546;BME280;58098;51.680;5.134;2022-12-13T11:54:19;101171.34;;;-1.31;100.00
70546;BME280;58098;51.680;5.134;2022-12-13T11:56:47;101169.63;;;-1.29;100.00
70546;BME280;58098;51.680;5.134;2022-12-13T11:59:36;101177.13;;;-1.23;100.00
70546;BME280;58098;51.680;5.134;2022-12-13T12:02:10;101159.19;;;-1.23;100.00
70546;BME280;58098;51.680;5.134;2022-12-13T12:04:53;101157.69;;;-1.30;100.00
70546;BME280;58098;51.680;5.134;2022-12-13T12:07:22;101150.06;;;-1.33;100.00
70546;BME280;58098;51.680;5.134;2022-12-13T12:10:40;101142.34;;;-1.30;100.00
70546;BME280;58098;51.680;5.134;2022-12-13T12:12:41;101148.25;;;-1.28;100.00
70546;BME280;58098;51.680;5.134;2022-12-13T12:15:23;101140.63;;;-1.31;100.00
70546;BME280;58098;51.680;5.134;2022-12-13T12:17:50;101145.69;;;-1.28;100.00
70546;BME280;58098;51.680;5.134;2022-12-13T12:20:36;101156.00;;;-1.31;100.00
70546;BME280;58098;51.680;5.134;2022-12-13T12:28:56;101142.78;;;-1.48;100.00
70546;BME280;58098;51.680;5.134;2022-12-13T12:34:28;101148.28;;;-1.63;100.00
70546;BME280;58098;51.680;5.134;2022-12-13T12:37:21;101153.53;;;-1.69;100.00
70546;BME280;58098;51.680;5.134;2022-12-13T12:40:23;101153.53;;;-1.69;100.00
70546;BME280;58098;51.680;5.134;2022-12-13T12:43:16;101156.97;;;-1.70;100.00
70546;BME280;58098;51.680;5.134;2022-12-13T12:49:42;101165.66;;;-1.77;100.00
70546;BME280;58098;51.680;5.134;2022-12-13T12:52:21;101154.75;;;-1.84;100.00
70546;BME280;58098;51.680;5.134;2022-12-13T12:57:27;101153.75;;;-1.78;100.00
70546;BME280;58098;51.680;5.134;2022-12-13T13:00:15;101149.44;;;-1.76;100.00
70546;BME280;58098;51.680;5.134;2022-12-13T13:05:27;101138.50;;;-1.81;100.00
70546;BME280;58098;51.680;5.134;2022-12-13T13:08:00;101140.91;;;-1.75;100.00
70546;BME280;58098;51.680;5.134;2022-12-13T13:10:28;101109.59;;;-1.85;100.00
70546;BME280;58098;51.680;5.134;2022-12-13T13:12:54;101122.19;;;-1.77;100.00
70546;BME280;58098;51.680;5.134;2022-12-13T13:18:00;101141.47;;;-1.64;100.00
70546;BME280;58098;51.680;5.134;2022-12-13T13:20:28;101122.78;;;-1.66;100.00
70546;BME280;58098;51.680;5.134;2022-12-13T13:22:55;101131.97;;;-1.59;100.00
70546;BME280;58098;51.680;5.134;2022-12-13T13:25:29;101131.88;;;-1.55;100.00
70546;BME280;58098;51.680;5.134;2022-12-13T13:28:02;101124.19;;;-1.55;100.00
70546;BME280;58098;51.680;5.134;2022-12-13T13:30:29;101128.47;;;-1.55;100.00
70546;BME280;58098;51.680;5.134;2022-12-13T13:32:56;101115.84;;;-1.61;100.00
70546;BME280;58098;51.680;5.134;2022-12-13T13:38:03;101121.63;;;-1.55;100.00
70546;BME280;58098;51.680;5.134;2022-12-13T13:40:33;101095.44;;;-1.64;100.00
70546;BME280;58098;51.680;5.134;2022-12-13T14:02:01;101090.28;;;-1.63;100.00
70546;BME280;58098;51.680;5.134;2022-12-13T14:04:51;101103.91;;;-1.62;100.00